Аэропорт: Магнитогорск. Магнитогорск

ICAO: USCM

METAR:
2019-09-21 16:00:00
USCM 211600Z 35003MPS 4400 -SHRA BR VV005 05/05 Q1005 R36/290257 TEMPO 2000 SHRA VV003 RMK QFE715
METAR:
Информация по данной станции не доступна